Latest Weather Observations for Nullarbor

IDS60801

Issued at 6:05 am CDT Saturday 29 November 2014 (issued every 30 minutes, with the page automatically refreshed every 10 minutes)

About weather observations | Map of weather stations | Latest weather observations for SA | Other Formats
Station Details ID: 018106 Name: NULLARBOR Lat: -31.45 Lon: 130.90 Height: 64.0 m
Data from the previous 72 hours. | See also: Recent months at Nullarbor
Date/Time
CDT
Temp
°C
App
Temp
°C
Dew
Point
Rel
Hum
%
Delta-T
°C
Wind Press
QNH
hPa
Press
MSL
hPa
Rain
since 9 am
mm
Dir
 
Spd
km/h
Gust
km/h
Spd
kts
Gust
kts
29/06:00am 20.5 20.4 15.9 75 2.8 S 11 17 6 9 1009.9 1009.7 0.0
29/05:30am 20.6 20.4 15.8 74 2.9 S 11 15 6 8 1009.2 1009.0 0.0
29/05:00am 20.9 18.2 15.7 72 3.1 SW 24 32 13 17 1009.5 1009.3 0.0
29/04:30am 21.3 17.4 15.6 70 3.4 WSW 30 41 16 22 1010.0 1009.8 0.0
29/04:00am 21.5 15.9 15.6 69 3.5 WSW 39 54 21 29 1010.2 1010.0 0.0
29/03:48am 21.7 14.8 15.5 68 3.7 WSW 46 61 25 33 1010.4 1010.2 0.0
29/03:30am 22.3 13.6 14.7 62 4.5 WSW 54 85 29 46 1010.0 1009.8 0.0
29/03:26am 23.3 14.7 14.0 56 5.5 WSW 52 85 28 46 1009.8 1009.6 0.0
29/03:17am 22.9 16.1 4.9 31 9.0 W 30 54 16 29 1009.4 1009.2 0.0
29/03:00am 21.8 19.3 3.5 30 8.8 ENE 6 9 3 5 1007.3 1007.1 0.0
29/02:30am 21.6 18.0 2.8 29 8.9 E 11 13 6 7 1007.0 1006.8 0.0
29/02:00am 24.3 19.2 3.0 25 10.3 ENE 19 20 10 11 1007.4 1007.2 0.0
29/01:30am 24.9 20.2 3.0 24 10.7 ENE 17 19 9 10 1007.9 1007.7 0.0
29/01:00am 26.6 21.4 2.5 21 11.8 NE 19 22 10 12 1008.2 1008.0 0.0
29/12:30am 26.6 20.8 2.5 21 11.8 ENE 22 28 12 15 1008.1 1007.9 0.0
29/12:00am 25.5 20.5 3.5 24 10.9 ENE 19 22 10 12 1008.7 1008.5 0.0
 
Date/Time
CDT
Temp
°C
App
Temp
°C
Dew
Point
Rel
Hum
%
Delta-T
°C
Wind Press
QNH
hPa
Press
MSL
hPa
Rain
since 9 am
mm
Dir
 
Spd
km/h
Gust
km/h
Spd
kts
Gust
kts
28/11:30pm 25.3 22.1 5.0 27 10.3 E 11 15 6 8 1009.2 1009.0 0.0
28/11:00pm 25.9 21.3 5.5 27 10.5 E 19 20 10 11 1009.8 1009.6 0.0
28/10:30pm 26.8 23.0 5.7 26 10.9 ESE 15 19 8 10 1009.7 1009.5 0.0
28/10:00pm 27.7 23.9 5.9 25 11.4 E 15 22 8 12 1009.8 1009.6 0.0
28/09:30pm 27.1 21.7 8.0 30 10.3 E 26 35 14 19 1009.7 1009.5 0.0
28/09:00pm 25.9 20.7 8.8 34 9.3 E 26 33 14 18 1009.7 1009.5 0.0
28/08:30pm 25.5 19.4 9.7 37 8.7 E 32 41 17 22 1009.5 1009.3 0.0
28/08:00pm 25.1 19.7 10.9 41 8.0 ESE 30 39 16 21 1009.5 1009.3 0.0
28/07:30pm 25.4 19.7 11.2 41 8.0 ESE 32 43 17 23 1009.7 1009.5 0.0
28/07:00pm 25.5 19.8 11.3 41 8.0 ESE 32 44 17 24 1009.7 1009.5 0.0
28/06:30pm 25.7 20.7 12.2 43 7.8 ESE 30 37 16 20 1009.6 1009.4 0.0
28/06:00pm 26.0 21.1 12.5 43 7.8 ESE 30 41 16 22 1009.6 1009.4 0.0
28/05:30pm 28.0 22.3 11.1 35 9.7 SE 32 39 17 21 1009.8 1009.6 0.0
28/05:00pm 31.3 25.1 9.5 26 12.3 SE 32 39 17 21 1010.0 1009.8 0.0
28/04:30pm 32.3 26.1 7.9 22 13.5 SE 30 37 16 20 1010.2 1010.0 0.0
28/04:00pm 33.6 26.0 6.0 18 14.9 SSE 35 41 19 22 1010.4 1010.2 0.0
28/03:30pm 38.1 32.1 -1.9 8 19.6 ENE 20 28 11 15 1010.7 1010.5 0.0
28/03:00pm 35.3 29.4 -2.3 9 18.0 NE 19 33 10 18 1011.2 1011.0 0.0
28/02:30pm 34.5 27.9 -2.9 9 17.6 N 22 33 12 18 1011.5 1011.3 0.0
28/02:00pm 34.5 27.2 -2.9 9 17.6 N 26 37 14 20 1012.0 1011.8 0.0
28/01:30pm 34.5 27.2 -2.9 9 17.6 NNE 26 37 14 20 1012.6 1012.4 0.0
28/01:00pm 34.0 26.4 -1.9 10 17.1 N 28 35 15 19 1013.0 1012.8 0.0
28/12:30pm 34.2 26.7 -1.7 10 17.2 NNE 28 43 15 23 1013.2 1013.0 0.0
28/12:16pm 35.3 27.7 -2.3 9 18.0 N 28 46 15 25 1013.3 1013.1 0.0
28/12:00pm 35.3 27.1 -0.9 10 17.7 NNE 32 46 17 25 1013.5 1013.3 0.0
28/11:30am 34.9 26.1 -1.2 10 17.5 NNE 35 44 19 24 1014.0 1013.8 0.0
28/11:00am 33.3 26.0 0.1 12 16.3 NNE 28 37 15 20 1014.4 1014.2 0.0
28/10:30am 31.5 23.9 2.7 16 14.6 N 32 39 17 21 1014.8 1014.6 0.0
28/10:00am 29.6 22.1 3.5 19 13.2 NNE 32 41 17 22 1014.7 1014.5 0.0
28/09:30am 28.2 21.3 4.5 22 12.1 NE 30 39 16 21 1014.9 1014.7 0.0
28/09:00am 25.6 21.8 7.7 32 9.5 ENE 17 26 9 14 1015.0 1014.8 0.0
28/08:30am 21.3 18.7 11.9 55 5.3 E 17 22 9 12 1015.0 1014.8 0.0
28/08:00am 20.3 18.4 11.8 58 4.7 E 13 19 7 10 1015.3 1015.1 0.0
28/07:30am 18.6 16.2 13.9 74 2.7 NE 19 20 10 11 1015.3 1015.1 0.0
28/07:00am 17.7 17.1 13.4 76 2.4 E 9 11 5 6 1015.3 1015.1 0.0
28/06:30am 17.5 16.6 13.6 78 2.2 E 11 13 6 7 1014.9 1014.7 0.0
28/06:00am 17.1 16.0 13.0 77 2.3 E 11 11 6 6 1014.9 1014.7 0.0
28/05:30am 16.6 15.3 12.6 77 2.2 ESE 11 13 6 7 1014.6 1014.4 0.0
28/05:00am 16.3 14.9 12.3 77 2.2 SSE 11 13 6 7 1014.5 1014.3 0.0
28/04:30am 17.4 15.1 11.9 70 3.0 E 15 17 8 9 1014.1 1013.9 0.0
28/04:00am 16.7 14.7 12.7 77 2.2 E 15 17 8 9 1014.3 1014.1 0.0
28/03:30am 16.2 14.5 12.6 79 2.0 ESE 13 15 7 8 1014.7 1014.5 0.0
28/03:00am 16.7 14.7 12.7 77 2.2 ESE 15 17 8 9 1014.9 1014.7 0.0
28/02:30am 16.5 14.9 12.7 78 2.1 ESE 13 15 7 8 1015.2 1015.0 0.0
28/02:00am 17.0 15.3 12.5 75 2.5 ESE 13 15 7 8 1015.6 1015.4 0.0
28/01:30am 17.8 16.2 12.7 72 2.8 E 13 17 7 9 1015.8 1015.6 0.0
28/01:00am 18.2 16.3 13.1 72 2.9 E 15 19 8 10 1016.2 1016.0 0.0
28/12:30am 18.3 16.2 13.6 74 2.7 ESE 17 20 9 11 1016.5 1016.3 0.0
28/12:00am 18.6 15.7 14.1 75 2.6 ESE 22 28 12 15 1016.6 1016.4 0.0
 
Date/Time
CDT
Temp
°C
App
Temp
°C
Dew
Point
Rel
Hum
%
Delta-T
°C
Wind Press
QNH
hPa
Press
MSL
hPa
Rain
since 9 am
mm
Dir
 
Spd
km/h
Gust
km/h
Spd
kts
Gust
kts
27/11:30pm 18.6 16.0 14.9 79 2.2 SE 22 28 12 15 1016.8 1016.6 0.0
27/11:00pm 19.0 16.1 15.1 78 2.3 SE 24 32 13 17 1016.7 1016.5 0.0
27/10:30pm 19.1 15.4 15.0 77 2.4 SE 28 35 15 19 1016.9 1016.7 0.0
27/10:00pm 19.1 15.5 15.2 78 2.3 SE 28 37 15 20 1016.9 1016.7 0.0
27/09:30pm 18.9 15.8 15.6 81 2.0 SE 26 35 14 19 1017.2 1017.0 0.0
27/09:00pm 18.9 15.4 15.4 80 2.1 SE 28 37 15 20 1017.1 1016.9 0.0
27/08:30pm 19.2 14.9 15.5 79 2.2 SE 32 44 17 24 1017.1 1016.9 0.0
27/08:00pm 19.6 15.1 15.3 76 2.5 SE 33 43 18 23 1016.9 1016.7 0.0
27/07:30pm 20.1 15.3 14.7 71 3.2 SE 33 43 18 23 1016.8 1016.6 0.0
27/07:00pm 20.6 15.5 14.9 70 3.4 SE 35 43 19 23 1016.7 1016.5 0.0
27/06:30pm 21.6 16.7 15.2 67 3.8 SE 35 44 19 24 1016.4 1016.2 0.0
27/06:00pm 22.5 17.0 14.6 61 4.7 SE 37 50 20 27 1016.3 1016.1 0.0
27/05:30pm 23.9 19.2 14.9 57 5.4 SSE 33 43 18 23 1016.4 1016.2 0.0
27/05:00pm 24.2 18.9 14.3 54 5.9 SE 35 44 19 24 1016.6 1016.4 0.0
27/04:30pm 25.5 20.7 14.6 51 6.5 SE 33 43 18 23 1016.7 1016.5 0.0
27/04:00pm 25.4 20.3 13.6 48 6.9 SSE 33 43 18 23 1016.7 1016.5 0.0
27/03:30pm 25.5 20.4 13.0 46 7.3 SSE 32 39 17 21 1017.0 1016.8 0.0
27/03:00pm 27.3 22.0 12.5 40 8.6 SSE 32 37 17 20 1017.4 1017.3 0.0
27/02:30pm 28.2 23.0 10.4 33 10.0 SSE 28 35 15 19 1017.6 1017.5 0.0
27/02:00pm 28.6 23.4 10.3 32 10.4 SSE 28 35 15 19 1018.1 1018.0 0.0
27/01:30pm 29.3 24.1 10.4 31 10.7 SSE 28 37 15 20 1018.4 1018.3 0.0
27/01:00pm 28.5 24.3 9.7 31 10.5 SSE 22 32 12 17 1018.8 1018.7 0.0
27/12:30pm 28.5 24.4 10.2 32 10.3 SE 22 32 12 17 1019.0 1018.9 0.0
27/12:00pm 29.6 26.6 9.2 28 11.4 E 15 26 8 14 1019.3 1019.2 0.0
27/11:30am 28.8 24.2 5.6 23 12.1 ENE 19 26 10 14 1019.5 1019.4 0.0
27/11:00am 26.4 23.3 7.4 30 10.1 ENE 13 24 7 13 1019.7 1019.6 0.0
27/10:30am 24.2 20.9 9.4 39 8.0 E 17 20 9 11 1019.9 1019.8 0.0
27/10:00am 22.7 18.9 9.8 44 7.0 E 20 26 11 14 1020.2 1020.1 0.0
27/09:30am 21.3 17.2 10.2 49 6.0 E 22 28 12 15 1020.4 1020.3 0.0
27/09:00am 20.1 16.1 11.8 59 4.6 ESE 24 30 13 16 1020.3 1020.2 0.0
27/08:30am 18.4 15.2 13.0 71 3.0 ESE 22 30 12 16 1020.3 1020.2 0.0
27/08:00am 17.7 15.5 14.8 83 1.7 ESE 20 26 11 14 1020.1 1020.0 0.0
27/07:30am 15.9 14.9 15.7 99 0.1 ESE 15 19 8 10 1020.0 1019.9 0.0
27/07:00am 15.3 14.5 15.1 99 0.1 SE 13 15 7 8 1020.1 1020.0 0.0
27/06:30am 15.2 13.6 15.0 99 0.1 SE 17 19 9 10 1019.8 1019.7 0.0
27/06:00am 15.2 13.9 14.9 98 0.2 SE 15 17 8 9 1019.7 1019.6 0.0
27/05:30am 15.0 13.9 14.4 96 0.3 SE 13 15 7 8 1019.7 1019.6 0.0
27/05:00am 15.1 13.6 14.1 94 0.6 SE 15 17 8 9 1019.5 1019.4 0.0
27/04:30am 15.0 13.6 13.5 91 0.8 SE 13 17 7 9 1019.6 1019.5 0.0
27/04:00am 15.3 13.6 13.5 89 1.0 SE 15 17 8 9 1019.5 1019.4 0.0
27/03:30am 15.9 12.9 13.6 86 1.3 SE 22 30 12 16 1019.4 1019.3 0.0
27/03:00am 15.6 13.0 13.3 86 1.3 ESE 19 24 10 13 1019.5 1019.4 0.0
27/02:30am 15.8 12.6 13.1 84 1.5 ESE 22 30 12 16 1019.6 1019.5 0.0
27/02:00am 15.8 12.9 12.9 83 1.6 ESE 20 28 11 15 1019.8 1019.7 0.0
27/01:30am 15.8 13.2 13.1 84 1.5 SE 19 28 10 15 1020.2 1020.1 0.0
27/01:00am 15.7 12.4 12.8 83 1.6 SE 22 30 12 16 1020.6 1020.5 0.0
27/12:30am 15.9 12.6 12.8 82 1.7 SE 22 28 12 15 1020.9 1020.8 0.0
27/12:00am 15.9 12.5 12.6 81 1.8 SE 22 28 12 15 1021.3 1021.2 0.0
 
Date/Time
CDT
Temp
°C
App
Temp
°C
Dew
Point
Rel
Hum
%
Delta-T
°C
Wind Press
QNH
hPa
Press
MSL
hPa
Rain
since 9 am
mm
Dir
 
Spd
km/h
Gust
km/h
Spd
kts
Gust
kts
26/11:30pm 15.9 12.0 12.1 78 2.1 SE 24 30 13 16 1021.5 1021.4 0.0
26/11:00pm 16.2 11.5 12.0 76 2.3 SE 28 35 15 19 1021.6 1021.5 0.0
26/10:30pm 16.2 12.3 12.2 77 2.2 SE 24 32 13 17 1021.5 1021.4 0.0
26/10:00pm 16.3 11.6 12.1 76 2.3 SE 28 35 15 19 1021.2 1021.1 0.0
26/09:30pm 16.6 12.0 12.4 76 2.3 SE 28 37 15 20 1021.0 1020.9 0.0
26/09:00pm 16.9 12.1 12.8 77 2.3 SE 30 41 16 22 1020.8 1020.7 0.0
26/08:30pm 17.2 11.7 12.5 74 2.6 SE 33 43 18 23 1020.8 1020.7 0.0
26/08:00pm 17.9 12.1 12.6 71 3.0 SE 35 44 19 24 1020.5 1020.4 0.0
26/07:30pm 18.4 12.4 12.2 67 3.4 SE 35 46 19 25 1020.4 1020.3 0.0
26/07:00pm 19.3 13.0 12.3 64 3.9 SE 37 52 20 28 1020.2 1020.1 0.0
26/06:30pm 19.4 12.7 12.4 64 3.9 SE 39 48 21 26 1020.0 1019.9 0.0
26/06:00pm 20.5 14.4 11.7 57 4.9 SSE 35 44 19 24 1020.2 1020.1 0.0
26/05:30pm 20.7 15.0 11.9 57 4.9 SE 33 43 18 23 1020.4 1020.3 0.0
26/05:00pm 20.9 14.7 11.5 55 5.2 SSE 35 44 19 24 1020.6 1020.5 0.0
26/04:30pm 21.0 15.1 11.3 54 5.4 SSE 33 44 18 24 1020.8 1020.7 0.0
26/04:00pm 21.8 16.1 11.2 51 5.9 SSE 32 41 17 22 1021.0 1020.9 0.0
26/03:30pm 21.9 16.2 11.3 51 5.9 SE 32 43 17 23 1021.2 1021.1 0.0
26/03:00pm 22.1 17.3 11.5 51 5.9 SSE 28 37 15 20 1021.4 1021.3 0.0
26/02:30pm 21.4 16.1 11.4 53 5.5 SSE 30 39 16 21 1021.6 1021.5 0.0
26/02:00pm 21.9 17.6 11.9 53 5.6 SE 26 37 14 20 1021.8 1021.7 0.0
26/01:30pm 22.8 18.6 12.4 52 5.9 SSE 26 37 14 20 1022.1 1022.0 0.0
26/01:00pm 21.2 16.7 11.5 54 5.4 SSE 26 39 14 21 1022.4 1022.3 0.0
26/12:30pm 21.0 16.5 11.3 54 5.4 SSE 26 37 14 20 1022.6 1022.5 0.0
26/12:00pm 21.2 17.1 11.5 54 5.4 SE 24 35 13 19 1022.9 1022.8 0.0
26/11:30am 21.5 17.5 11.8 54 5.4 SE 24 35 13 19 1022.9 1022.8 0.0
26/11:00am 20.2 16.3 10.9 55 5.1 SE 22 30 12 16 1023.3 1023.1 0.0
26/10:30am 20.4 17.3 12.1 59 4.6 SSE 20 30 11 16 1023.4 1023.2 0.0
26/10:00am 19.5 15.7 11.0 58 4.6 SE 22 32 12 17 1023.6 1023.4 0.0
26/09:30am 19.5 15.8 11.5 60 4.4 SE 22 32 12 17 1023.4 1023.2 0.0
26/09:00am 18.8 15.4 11.1 61 4.2 ESE 20 30 11 16 1023.5 1023.3 0.0
26/08:30am 18.3 15.1 11.8 66 3.6 ESE 20 26 11 14 1023.2 1023.0 0.0
26/08:00am 14.9 14.7 11.9 82 1.6 NE 4 9 2 5 1023.1 1022.9 0.0
26/07:30am 12.6 11.0 10.1 85 1.3 E 9 9 5 5 1022.9 1022.8 0.0
26/07:00am 11.6 9.4 9.2 85 1.2 ESE 11 11 6 6 1022.5 1022.4 0.0
26/06:30am 11.9 9.6 8.9 82 1.5 E 11 13 6 7 1022.3 1022.2 0.0

Other Formats:

Comma delimited format used in spreadsheet applications
http://www.bom.gov.au/fwo/IDS60801/IDS60801.94651.axf

JavaScript Object Notation format (JSON) in row-major order
http://www.bom.gov.au/fwo/IDS60801/IDS60801.94651.json